Time;durP1;ratioP1;P1;durP2;ratioP2;P2;SDS_P1;SDS_P2;PMS_P1;PMS_P2;Temp;Humidity;BMP_temperature;BMP_pressure;BME280_temperature;BME280_humidity;BME280_pressure;Samples;Min_cycle;Max_cycle;Signal;HPM_P1;HPM_P2
2021/05/16 00:02:08;;;;;;;24.45;5.43;;;;;;;16.99;85.88;100466.41;5104116;28;20055;-72
2021/05/16 00:04:35;;;;;;;16.70;5.13;;;;;;;16.88;85.58;100465.06;5100109;28;20912;-70
2021/05/16 00:07:02;;;;;;;17.75;4.65;;;;;;;16.86;85.72;100473.03;5101315;28;20040;-71
2021/05/16 00:09:29;;;;;;;13.25;3.85;;;;;;;16.83;85.83;100473.69;5099642;28;20103;-71
2021/05/16 00:11:56;;;;;;;10.77;3.05;;;;;;;16.78;86.07;100469.81;5102913;28;20043;-74
2021/05/16 00:14:25;;;;;;;11.40;3.63;;;;;;;16.71;86.06;100477.03;5097659;28;20040;-70
2021/05/16 00:16:54;;;;;;;13.65;3.13;;;;;;;16.79;86.18;100468.69;5104096;28;20051;-70
2021/05/16 00:19:21;;;;;;;10.20;3.08;;;;;;;16.55;86.69;100457.75;5101960;28;20041;-73
2021/05/16 00:21:48;;;;;;;10.65;2.65;;;;;;;16.67;86.25;100476.03;5097091;28;20043;-74
2021/05/16 00:24:15;;;;;;;7.72;2.35;;;;;;;16.65;86.30;100473.56;5099125;28;20036;-74
2021/05/16 00:26:42;;;;;;;13.02;2.50;;;;;;;16.57;86.70;100466.69;5102009;28;20040;-76
2021/05/16 00:29:10;;;;;;;10.15;2.95;;;;;;;16.67;86.71;100465.59;5107322;28;20438;-71
2021/05/16 00:31:36;;;;;;;5.53;2.40;;;;;;;16.66;86.77;100460.28;5106440;27;20040;-69
2021/05/16 00:34:03;;;;;;;7.22;2.40;;;;;;;16.59;86.47;100436.19;5103883;27;20043;-70
2021/05/16 00:36:30;;;;;;;4.68;2.10;;;;;;;16.64;86.69;100446.50;5111569;27;20051;-69
2021/05/16 00:38:58;;;;;;;5.60;1.83;;;;;;;16.58;86.23;100447.78;5110645;28;20734;-72
2021/05/16 00:41:25;;;;;;;9.32;2.60;;;;;;;16.65;86.27;100442.53;5098725;28;20106;-73
2021/05/16 00:43:52;;;;;;;9.98;2.65;;;;;;;16.71;86.62;100437.56;5104379;28;20061;-73
2021/05/16 00:46:19;;;;;;;8.90;2.25;;;;;;;16.62;86.48;100440.38;5111581;27;20048;-75
2021/05/16 00:48:46;;;;;;;4.90;1.95;;;;;;;16.69;86.52;100435.09;5110045;28;20055;-73
2021/05/16 00:51:13;;;;;;;4.72;1.90;;;;;;;16.65;86.49;100439.72;5103603;28;20075;-71
2021/05/16 00:53:40;;;;;;;7.88;2.22;;;;;;;16.68;86.24;100433.41;5105427;27;20043;-73
2021/05/16 00:56:07;;;;;;;7.35;2.25;;;;;;;16.58;87.15;100428.06;5111572;27;20040;-70
2021/05/16 00:58:34;;;;;;;8.48;3.03;;;;;;;16.66;86.56;100444.19;5109156;27;20395;-68
2021/05/16 01:01:08;;;;;;;5.22;2.75;;;;;;;16.63;86.50;100418.63;5107485;27;20039;-71
2021/05/16 01:03:35;;;;;;;4.57;1.80;;;;;;;16.54;87.15;100413.78;5101415;28;20051;-78
2021/05/16 01:06:02;;;;;;;5.50;2.25;;;;;;;16.42;87.37;100407.09;5103521;28;20052;-74
2021/05/16 01:08:29;;;;;;;14.57;2.70;;;;;;;16.57;87.01;100421.59;5104269;27;20134;-69
2021/05/16 01:10:56;;;;;;;9.88;2.63;;;;;;;16.51;87.12;100416.41;5105001;27;20052;-69
2021/05/16 01:13:25;;;;;;;12.25;3.35;;;;;;;16.54;86.96;100407.31;5100271;27;20779;-68
2021/05/16 01:15:53;;;;;;;9.00;2.78;;;;;;;16.59;87.17;100407.19;5107507;28;20043;-69
2021/05/16 01:18:20;;;;;;;12.32;3.08;;;;;;;16.62;87.03;100400.06;5101581;28;20047;-69
2021/05/16 01:20:50;;;;;;;9.27;4.03;;;;;;;16.71;86.57;100400.91;5099502;28;20050;-69
2021/05/16 01:23:20;;;;;;;;;;;;;;;16.81;86.79;100404.31;5103165;27;20071;-69
2021/05/16 01:25:48;;;;;;;10.18;3.85;;;;;;;16.74;86.29;100406.75;5102638;28;19920;-69
2021/05/16 01:28:17;;;;;;;21.95;4.07;;;;;;;16.75;86.74;100411.28;5103193;28;20062;-67
2021/05/16 01:30:46;;;;;;;9.93;3.40;;;;;;;16.69;86.71;100406.91;5106223;27;20046;-69
2021/05/16 01:33:13;;;;;;;13.55;3.67;;;;;;;16.65;86.84;100405.03;5102905;28;20048;-69
2021/05/16 01:35:40;;;;;;;10.02;3.70;;;;;;;16.76;86.68;100412.09;5099305;27;20044;-70
2021/05/16 01:38:08;;;;;;;26.27;4.00;;;;;;;16.78;86.46;100410.59;5100909;28;20051;-69
2021/05/16 01:40:40;;;;;;;11.25;3.15;;;;;;;16.77;86.85;100403.31;5106957;27;20043;-68
2021/05/16 01:43:12;;;;;;;11.40;3.28;;;;;;;16.77;86.67;100403.31;5107721;27;20489;-69
2021/05/16 01:45:39;;;;;;;17.08;3.70;;;;;;;16.75;86.69;100405.63;5098748;28;20423;-68
2021/05/16 01:48:07;;;;;;;12.65;3.03;;;;;;;16.69;86.83;100389.16;5105598;27;20067;-72
2021/05/16 01:50:36;;;;;;;14.43;4.30;;;;;;;16.80;86.52;100399.81;5102691;28;20062;-72
2021/05/16 01:53:05;;;;;;;10.18;3.47;;;;;;;16.74;86.69;100395.47;5101968;28;20047;-70
2021/05/16 01:55:33;;;;;;;11.02;3.45;;;;;;;16.80;86.62;100399.00;5106758;27;20075;-68
2021/05/16 01:58:01;;;;;;;13.57;3.40;;;;;;;16.78;86.71;100390.84;5102210;27;20120;-69
2021/05/16 02:00:30;;;;;;;5.97;2.85;;;;;;;16.81;86.77;100404.31;5101599;28;20100;-69
2021/05/16 02:02:58;;;;;;;7.43;2.35;;;;;;;16.81;86.50;100390.19;5104867;27;20040;-68
2021/05/16 02:05:25;;;;;;;14.45;3.78;;;;;;;16.71;86.44;100376.38;5104179;28;20394;-68
2021/05/16 02:07:53;;;;;;;12.70;3.28;;;;;;;16.79;86.40;100397.34;5099305;27;20047;-65
2021/05/16 02:10:21;;;;;;;22.92;4.10;;;;;;;16.83;86.47;100389.91;5100917;27;20036;-69
2021/05/16 02:12:48;;;;;;;11.18;4.25;;;;;;;16.86;86.80;100397.69;5098498;28;20611;-67
2021/05/16 02:15:15;;;;;;;11.00;2.97;;;;;;;16.76;86.83;100384.72;5101222;28;20044;-76
2021/05/16 02:17:43;;;;;;;8.57;3.13;;;;;;;16.83;86.85;100387.06;5105424;27;20050;-76
2021/05/16 02:20:16;;;;;;;4.50;2.38;;;;;;;16.85;86.67;100393.19;5107448;28;20039;-77
2021/05/16 02:22:43;;;;;;;8.13;2.25;;;;;;;16.85;86.29;100381.91;5110700;28;20134;-78
2021/05/16 02:25:11;;;;;;;3.60;1.42;;;;;;;16.87;86.70;100390.06;5099433;27;20044;-76
2021/05/16 02:27:38;;;;;;;5.90;1.92;;;;;;;16.89;86.15;100393.38;5098346;28;20036;-77
2021/05/16 02:30:08;;;;;;;4.65;1.63;;;;;;;16.89;86.24;100396.19;5095196;28;20044;-73
2021/05/16 02:32:37;;;;;;;4.53;1.52;;;;;;;16.79;86.30;100389.72;5102108;28;20126;-74
2021/05/16 02:35:07;;;;;;;15.68;2.63;;;;;;;16.78;86.36;100393.66;5094267;28;20048;-73
2021/05/16 02:37:34;;;;;;;20.58;2.47;;;;;;;16.75;86.83;100388.72;5100904;28;20169;-75
2021/05/16 02:40:00;;;;;;;28.05;3.50;;;;;;;16.72;87.05;100382.88;5096045;28;20409;-76
2021/05/16 02:42:28;;;;;;;12.35;3.47;;;;;;;16.82;86.63;100385.41;5097989;28;20052;-74
2021/05/16 02:44:54;;;;;;;10.10;2.65;;;;;;;16.80;86.76;100382.91;5099114;28;20062;-77
2021/05/16 02:47:21;;;;;;;10.25;2.05;;;;;;;16.76;86.63;100379.09;5101278;27;20258;-72
2021/05/16 02:49:49;;;;;;;6.78;2.20;;;;;;;16.87;86.93;100390.06;5101596;28;20421;-77
2021/05/16 02:52:16;;;;;;;3.22;1.92;;;;;;;16.87;86.67;100384.44;5099550;28;20046;-78
2021/05/16 02:54:43;;;;;;;6.75;1.80;;;;;;;16.90;86.50;100378.13;5100941;27;20036;-78
2021/05/16 02:57:10;;;;;;;6.13;2.10;;;;;;;16.85;86.66;100376.28;5103664;28;20054;-75
2021/05/16 02:59:37;;;;;;;9.30;2.13;;;;;;;16.87;86.67;100387.25;5099994;27;20044;-73
2021/05/16 03:02:04;;;;;;;8.10;1.55;;;;;;;16.91;86.87;100368.50;5104165;27;20690;-73
2021/05/16 03:04:31;;;;;;;45.78;3.42;;;;;;;16.91;86.76;100383.44;5099488;28;20040;-72
2021/05/16 03:06:58;;;;;;;37.80;4.07;;;;;;;16.90;86.59;100369.69;5097094;28;20044;-74
2021/05/16 03:09:26;;;;;;;16.45;2.45;;;;;;;16.80;86.94;100363.16;5103407;28;20044;-74
2021/05/16 03:11:53;;;;;;;21.90;2.65;;;;;;;16.90;86.66;100380.97;5097664;28;20051;-71
2021/05/16 03:14:20;;;;;;;4.70;1.50;;;;;;;16.90;86.37;100372.50;5098673;28;20054;-71
2021/05/16 03:16:47;;;;;;;4.00;2.17;;;;;;;16.92;86.28;100379.47;5098883;27;20036;-72
2021/05/16 03:19:14;;;;;;;2.90;1.60;;;;;;;16.91;86.41;100371.31;5100136;28;20036;-71
2021/05/16 03:21:40;;;;;;;6.63;1.58;;;;;;;16.94;86.39;100379.97;5096158;28;20047;-73
2021/05/16 03:24:07;;;;;;;6.53;2.33;;;;;;;16.80;86.46;100351.88;5094362;27;20040;-72
2021/05/16 03:26:34;;;;;;;10.77;2.45;;;;;;;16.93;86.50;100375.50;5098945;28;20051;-73
2021/05/16 03:29:01;;;;;;;5.10;2.40;;;;;;;16.86;86.49;100366.69;5100955;28;20123;-72
2021/05/16 03:31:28;;;;;;;10.40;2.03;;;;;;;16.81;86.83;100364.00;5097629;27;20464;-71
2021/05/16 03:33:55;;;;;;;22.10;3.92;;;;;;;16.87;86.90;100379.63;5096473;28;20046;-70
2021/05/16 03:36:21;;;;;;;11.90;2.28;;;;;;;16.84;86.98;100368.16;5099026;28;20065;-70
2021/05/16 03:38:49;;;;;;;31.67;3.95;;;;;;;16.84;87.21;100368.97;5100328;28;20493;-69
2021/05/16 03:41:16;;;;;;;112.68;8.93;;;;;;;16.81;87.39;100370.47;5104103;28;20397;-70
2021/05/16 03:43:44;;;;;;;98.85;6.97;;;;;;;16.90;87.27;100378.97;5102647;28;20043;-72
2021/05/16 03:46:11;;;;;;;29.75;4.20;;;;;;;16.92;87.00;100372.97;5100575;28;20039;-69
2021/05/16 03:48:38;;;;;;;32.60;3.25;;;;;;;16.86;86.87;100360.22;5103753;28;20469;-71
2021/05/16 03:51:05;;;;;;;52.45;5.20;;;;;;;16.89;86.77;100359.53;5098839;28;20040;-70
2021/05/16 03:53:32;;;;;;;73.72;4.70;;;;;;;16.89;86.97;100368.00;5096749;27;20383;-70
2021/05/16 03:55:59;;;;;;;109.03;5.57;;;;;;;16.94;86.93;100374.31;5101954;27;20043;-70
2021/05/16 03:58:26;;;;;;;137.38;8.63;;;;;;;16.91;87.04;100368.50;5101289;28;20047;-70
2021/05/16 04:00:52;;;;;;;76.32;5.72;;;;;;;16.92;87.20;100365.38;5097125;28;20043;-70
2021/05/16 04:03:19;;;;;;;65.78;6.50;;;;;;;16.94;87.19;100356.56;5104145;28;20039;-70
2021/05/16 04:05:46;;;;;;;18.75;3.55;;;;;;;16.93;87.11;100360.56;5101965;28;20423;-65
2021/05/16 04:08:13;;;;;;;23.23;4.15;;;;;;;16.97;87.11;100358.75;5093922;28;20040;-68
2021/05/16 04:10:40;;;;;;;45.72;5.45;;;;;;;16.99;86.92;100362.03;5100096;28;20054;-66
2021/05/16 04:13:07;;;;;;;41.05;4.05;;;;;;;17.01;87.07;100356.91;5099137;28;20048;-63
2021/05/16 04:15:34;;;;;;;44.63;6.45;;;;;;;17.00;87.08;100355.25;5099929;28;20044;-64
2021/05/16 04:18:00;;;;;;;94.72;6.93;;;;;;;16.99;86.63;100359.22;5102137;28;20062;-66
2021/05/16 04:20:27;;;;;;;66.00;5.05;;;;;;;17.01;87.03;100362.56;5101261;28;20050;-65
2021/05/16 04:22:54;;;;;;;35.65;3.95;;;;;;;16.76;86.89;100324.69;5093335;28;20383;-67
2021/05/16 04:25:21;;;;;;;13.52;3.28;;;;;;;16.98;87.12;100351.94;5099864;28;20047;-68
2021/05/16 04:27:48;;;;;;;5.05;1.85;;;;;;;16.91;86.66;100335.47;5104492;28;20046;-66
2021/05/16 04:30:15;;;;;;;3.88;1.23;;;;;;;16.99;86.90;100339.47;5099523;28;20048;-68
2021/05/16 04:32:42;;;;;;;4.82;1.20;;;;;;;16.97;86.97;100341.81;5103435;28;20512;-65
2021/05/16 04:35:09;;;;;;;4.78;0.75;;;;;;;16.89;86.71;100348.25;5101873;28;20130;-69
2021/05/16 04:37:36;;;;;;;9.93;1.88;;;;;;;17.02;86.75;100352.94;5097475;28;20051;-68
2021/05/16 04:40:05;;;;;;;4.18;1.20;;;;;;;16.97;86.76;100344.63;5101501;28;20126;-68
2021/05/16 04:42:32;;;;;;;32.33;4.05;;;;;;;17.00;86.68;100349.63;5101570;28;20122;-71
2021/05/16 04:44:58;;;;;;;29.02;2.08;;;;;;;17.03;86.96;100349.78;5101537;28;20130;-70
2021/05/16 04:47:26;;;;;;;2.85;1.70;;;;;;;17.02;86.90;100336.00;5105328;28;20048;-70
2021/05/16 04:49:53;;;;;;;2.50;1.23;;;;;;;17.06;86.92;100351.13;5096512;28;20062;-71
2021/05/16 04:52:20;;;;;;;4.78;1.60;;;;;;;17.04;86.79;100347.81;5101403;28;21219;-73
2021/05/16 04:54:46;;;;;;;2.22;1.10;;;;;;;17.09;86.74;100352.44;5100572;28;20071;-67
2021/05/16 04:57:13;;;;;;;3.05;1.17;;;;;;;17.01;87.08;100345.63;5105268;28;20050;-68
2021/05/16 04:59:40;;;;;;;7.85;1.25;;;;;;;17.09;86.71;100347.63;5100633;28;20089;-67
2021/05/16 05:02:07;;;;;;;2.70;1.67;;;;;;;16.94;86.87;100331.19;5104412;28;20055;-71
2021/05/16 05:04:35;;;;;;;3.13;1.40;;;;;;;17.03;87.01;100348.97;5100124;28;20035;-69
2021/05/16 05:07:06;;;;;;;1.95;1.02;;;;;;;17.02;86.90;100345.28;5102723;28;20058;-75
2021/05/16 05:09:34;;;;;;;1.35;0.77;;;;;;;17.01;87.06;100338.00;5105070;28;20054;-67
2021/05/16 05:12:01;;;;;;;4.88;1.33;;;;;;;17.10;86.88;100357.78;5103988;28;20044;-64
2021/05/16 05:14:29;;;;;;;1.38;1.02;;;;;;;17.05;86.77;100352.28;5101761;28;20053;-63
2021/05/16 05:16:56;;;;;;;2.95;1.10;;;;;;;17.09;86.71;100352.44;5107397;27;20161;-64
2021/05/16 05:19:24;;;;;;;2.03;1.10;;;;;;;17.15;87.03;100368.88;5101968;28;20477;-68
2021/05/16 05:21:51;;;;;;;8.27;1.65;;;;;;;17.17;86.80;100372.22;5104307;27;20040;-64
2021/05/16 05:24:18;;;;;;;35.67;3.08;;;;;;;17.20;86.98;100377.22;5103613;27;20044;-74
2021/05/16 05:26:45;;;;;;;37.72;3.25;;;;;;;16.81;86.61;100314.06;5098346;28;20512;-72
2021/05/16 05:29:11;;;;;;;22.23;2.28;;;;;;;17.15;86.41;100385.81;5103865;27;20051;-67
2021/05/16 05:31:38;;;;;;;72.30;6.07;;;;;;;17.17;86.58;100391.97;5098438;27;20039;-72
2021/05/16 05:34:05;;;;;;;80.88;5.20;;;;;;;17.17;87.04;100386.34;5099556;28;20127;-68
2021/05/16 05:36:32;;;;;;;58.60;5.32;;;;;;;17.21;86.55;100404.25;5101740;28;20040;-64
2021/05/16 05:38:59;;;;;;;16.83;2.00;;;;;;;17.22;86.55;100397.44;5103709;27;20390;-75
2021/05/16 05:41:25;;;;;;;66.47;5.57;;;;;;;17.25;86.61;100399.63;5103354;27;20054;-67
2021/05/16 05:43:52;;;;;;;40.75;3.88;;;;;;;17.24;86.66;100397.97;5100003;27;20047;-66
2021/05/16 05:46:19;;;;;;;39.75;3.60;;;;;;;17.24;86.67;100400.78;5104624;27;20394;-65
2021/05/16 05:48:46;;;;;;;33.20;3.28;;;;;;;17.31;86.77;100394.66;5100713;28;20040;-66
2021/05/16 05:51:13;;;;;;;40.83;3.58;;;;;;;17.29;86.40;100406.25;5098486;27;20044;-65
2021/05/16 05:53:41;;;;;;;9.77;3.03;;;;;;;17.22;86.55;100399.44;5102959;27;20081;-66
2021/05/16 05:56:08;;;;;;;7.50;1.73;;;;;;;17.26;86.97;100412.59;5103367;27;20040;-69
2021/05/16 05:58:35;;;;;;;4.07;1.80;;;;;;;17.30;86.91;100424.06;5106171;27;20058;-69
2021/05/16 06:01:03;;;;;;;2.05;1.25;;;;;;;17.32;86.88;100418.06;5110778;27;20048;-68
2021/05/16 06:03:30;;;;;;;5.28;1.55;;;;;;;17.36;86.83;100413.41;5107140;27;20544;-68
2021/05/16 06:05:57;;;;;;;26.98;2.42;;;;;;;17.39;86.45;100424.88;5103254;28;20504;-70
2021/05/16 06:08:24;;;;;;;61.88;4.78;;;;;;;17.37;86.66;100415.09;5102549;27;20044;-68
2021/05/16 06:10:50;;;;;;;33.13;3.45;;;;;;;17.39;86.48;100404.28;5101324;28;20047;-68
2021/05/16 06:13:17;;;;;;;25.30;2.95;;;;;;;17.36;86.56;100404.94;5101385;27;20051;-69
2021/05/16 06:15:44;;;;;;;10.25;2.65;;;;;;;17.28;86.39;100395.31;5107804;27;20478;-69
2021/05/16 06:18:11;;;;;;;15.15;1.77;;;;;;;17.28;86.56;100407.44;5101581;27;20052;-65
2021/05/16 06:20:38;;;;;;;10.45;2.25;;;;;;;17.18;86.42;100396.44;5102519;28;20035;-65
2021/05/16 06:23:07;;;;;;;4.93;2.20;;;;;;;17.17;86.38;100408.91;5102564;27;20409;-66
2021/05/16 06:25:34;;;;;;;3.42;1.55;;;;;;;17.14;86.43;100423.66;5107251;28;20054;-66
2021/05/16 06:28:01;;;;;;;10.63;3.05;;;;;;;17.09;86.46;100408.88;5095921;28;20055;-66
2021/05/16 06:30:28;;;;;;;9.02;2.67;;;;;;;17.05;86.49;100408.69;5108377;28;20096;-67
2021/05/16 06:32:55;;;;;;;4.93;2.17;;;;;;;17.06;86.70;100407.56;5108163;27;20132;-67
2021/05/16 06:35:21;;;;;;;2.30;1.55;;;;;;;16.97;86.48;100403.88;5100958;28;20412;-67
2021/05/16 06:37:48;;;;;;;4.35;1.90;;;;;;;17.02;86.60;100421.47;5100801;28;20040;-66
2021/05/16 06:40:17;;;;;;;7.03;1.20;;;;;;;17.09;86.73;100431.44;5098165;27;20047;-67
2021/05/16 06:42:44;;;;;;;6.65;1.90;;;;;;;17.07;86.80;100426.13;5097384;27;20131;-67
2021/05/16 06:45:12;;;;;;;18.70;2.53;;;;;;;17.02;86.86;100415.00;5100253;27;20052;-67
2021/05/16 06:47:40;;;;;;;3.67;1.40;;;;;;;17.10;86.89;100417.03;5097769;28;20122;-68
2021/05/16 06:50:08;;;;;;;1.83;1.10;;;;;;;17.06;87.24;100427.31;5103596;27;20529;-67
2021/05/16 06:52:36;;;;;;;2.45;1.08;;;;;;;17.12;87.07;100430.78;5099478;27;20504;-68
2021/05/16 06:55:03;;;;;;;1.83;0.98;;;;;;;17.12;86.56;100434.44;5094040;27;20062;-66
2021/05/16 06:57:31;;;;;;;2.58;0.95;;;;;;;17.06;86.67;100432.94;5105820;27;22740;-66
2021/05/16 07:00:00;;;;;;;5.68;1.02;;;;;;;16.88;87.06;100400.19;5098070;27;20048;-68
2021/05/16 07:02:27;;;;;;;3.38;1.10;;;;;;;17.10;86.88;100450.88;5104126;27;20101;-67
2021/05/16 07:04:54;;;;;;;2.85;1.27;;;;;;;17.07;86.70;100440.25;5098734;28;20465;-65
2021/05/16 07:07:21;;;;;;;2.45;1.20;;;;;;;17.10;86.76;100444.41;5096896;28;20074;-68
2021/05/16 07:09:48;;;;;;;0.52;0.30;;;;;;;17.03;86.61;100431.59;5099364;28;20059;-67
2021/05/16 07:12:15;;;;;;;0.35;0.30;;;;;;;17.05;87.10;100437.75;5101141;28;20554;-66
2021/05/16 07:14:42;;;;;;;0.22;0.22;;;;;;;17.07;86.67;100437.44;5105309;27;20049;-68
2021/05/16 07:17:09;;;;;;;0.30;0.30;;;;;;;17.14;86.82;100440.59;5101177;27;20047;-66
2021/05/16 07:19:36;;;;;;;0.50;0.45;;;;;;;17.13;86.70;100438.94;5102957;27;20058;-68
2021/05/16 07:22:03;;;;;;;0.93;0.52;;;;;;;17.14;86.57;100439.78;5097111;28;20050;-68
2021/05/16 07:24:29;;;;;;;1.58;0.60;;;;;;;17.17;86.52;100456.88;5095748;28;20047;-67
2021/05/16 07:26:56;;;;;;;1.58;0.70;;;;;;;17.17;86.94;100456.88;5102962;27;20048;-68
2021/05/16 07:29:23;;;;;;;1.20;0.50;;;;;;;17.05;86.50;100446.19;5100156;27;20042;-69
2021/05/16 07:31:51;;;;;;;0.45;0.25;;;;;;;17.07;86.56;100456.34;5104385;27;20047;-67
2021/05/16 07:34:19;;;;;;;0.73;0.20;;;;;;;17.08;86.63;100470.13;5103339;28;20051;-67
2021/05/16 07:36:46;;;;;;;0.47;0.47;;;;;;;17.09;86.60;100471.78;5103747;27;20154;-68
2021/05/16 07:39:13;;;;;;;2.45;0.47;;;;;;;17.05;86.71;100459.47;5097862;28;20067;-67
2021/05/16 07:41:40;;;;;;;1.75;0.90;;;;;;;16.97;86.65;100452.66;5102941;27;20408;-69
2021/05/16 07:44:08;;;;;;;1.67;0.57;;;;;;;17.02;86.86;100472.25;5099671;28;20525;-67
2021/05/16 07:46:36;;;;;;;7.72;1.38;;;;;;;16.95;86.77;100468.22;5099498;27;20047;-68
2021/05/16 07:49:06;;;;;;;2.30;0.82;;;;;;;16.93;86.41;100471.41;5101921;27;20072;-66
2021/05/16 07:51:32;;;;;;;6.72;1.33;;;;;;;16.92;86.80;100471.69;5100113;28;20086;-67
2021/05/16 07:54:00;;;;;;;6.40;1.20;;;;;;;16.96;86.43;100482.03;5094825;28;20047;-67
2021/05/16 07:56:27;;;;;;;6.10;1.42;;;;;;;16.93;86.39;100473.38;5101639;28;20047;-67
2021/05/16 07:58:54;;;;;;;3.00;1.63;;;;;;;16.83;86.52;100482.13;5091968;28;20044;-63
2021/05/16 08:01:21;;;;;;;10.50;1.95;;;;;;;16.83;86.60;100490.59;5104311;28;20048;-65
2021/05/16 08:03:48;;;;;;;6.47;1.90;;;;;;;16.69;86.53;100482.19;5097875;28;20044;-68
2021/05/16 08:06:15;;;;;;;4.38;2.20;;;;;;;16.68;86.35;100486.16;5092614;28;20044;-68
2021/05/16 08:08:42;;;;;;;3.75;2.03;;;;;;;16.73;86.26;100495.31;5100455;28;20046;-67
2021/05/16 08:11:09;;;;;;;10.20;2.22;;;;;;;16.72;86.34;100496.47;5101028;28;20039;-68
2021/05/16 08:13:35;;;;;;;2.88;1.60;;;;;;;16.65;86.17;100496.13;5097996;28;20044;-64
2021/05/16 08:16:03;;;;;;;5.45;2.22;;;;;;;16.74;86.76;100498.97;5098130;28;20497;-67
2021/05/16 08:18:30;;;;;;;2.90;1.15;;;;;;;16.75;86.85;100498.69;5101724;28;20488;-66
2021/05/16 08:20:56;;;;;;;5.07;1.90;;;;;;;16.84;86.92;100500.72;5101687;28;20048;-66
2021/05/16 08:23:23;;;;;;;2.75;1.48;;;;;;;16.99;86.69;100511.56;5096625;28;20436;-68
2021/05/16 08:25:51;;;;;;;4.38;1.40;;;;;;;16.94;86.48;100501.25;5091979;28;20058;-67
2021/05/16 08:28:18;;;;;;;5.80;2.40;;;;;;;16.76;86.44;100463.69;5091840;28;20051;-68
2021/05/16 08:30:46;;;;;;;13.85;2.42;;;;;;;17.02;87.01;100486.34;5092317;28;20051;-68
2021/05/16 08:33:13;;;;;;;3.58;2.00;;;;;;;17.02;86.93;100477.06;5092707;28;20048;-68
2021/05/16 08:35:39;;;;;;;6.32;2.15;;;;;;;17.13;86.84;100484.09;5097978;28;20469;-68
2021/05/16 08:38:06;;;;;;;4.65;2.08;;;;;;;17.09;86.92;100477.41;5091390;28;20144;-66
2021/05/16 08:40:33;;;;;;;5.40;1.48;;;;;;;17.21;86.82;100507.84;5091816;28;20040;-68
2021/05/16 08:43:02;;;;;;;4.55;2.30;;;;;;;17.20;86.76;100503.38;5097745;28;20067;-69
2021/05/16 08:45:30;;;;;;;3.65;1.67;;;;;;;17.31;87.26;100501.09;5092251;28;20047;-68
2021/05/16 08:47:58;;;;;;;3.60;1.25;;;;;;;17.34;86.96;100517.38;5095975;28;20105;-67
2021/05/16 08:50:26;;;;;;;8.48;2.00;;;;;;;17.32;86.88;100506.38;5096557;28;20488;-65
2021/05/16 08:52:55;;;;;;;10.38;2.58;;;;;;;17.44;87.03;100523.53;5098616;28;20059;-67
2021/05/16 08:55:22;;;;;;;2.25;1.35;;;;;;;17.43;86.67;100521.03;5095052;28;20048;-69
2021/05/16 08:57:50;;;;;;;7.78;1.40;;;;;;;17.53;86.61;100540.47;5094403;28;20047;-66
2021/05/16 09:00:22;;;;;;;6.15;2.00;;;;;;;17.55;86.52;100518.41;5094426;28;20048;-66
2021/05/16 09:03:07;;;;;;;9.80;1.90;;;;;;;17.53;86.20;100523.53;5101295;28;20051;-67
2021/05/16 09:05:39;;;;;;;11.35;1.48;;;;;;;17.61;86.16;100519.94;5106990;28;20059;-68
2021/05/16 09:08:11;;;;;;;12.70;1.60;;;;;;;17.72;86.33;100523.28;5094609;28;20040;-66
2021/05/16 09:10:40;;;;;;;5.25;1.98;;;;;;;17.72;86.51;100521.28;5097041;28;20048;-67
2021/05/16 09:13:16;;;;;;;4.03;2.05;;;;;;;17.77;86.39;100514.66;5107689;28;20048;-67
2021/05/16 09:16:05;;;;;;;11.70;1.83;;;;;;;17.89;86.86;100531.81;5094296;28;20522;-66
2021/05/16 09:18:43;;;;;;;8.63;1.50;;;;;;;18.05;86.49;100545.44;5094318;28;20054;-67
2021/05/16 09:21:26;;;;;;;9.68;1.23;;;;;;;18.02;87.06;100521.50;5094656;28;20047;-65
2021/05/16 09:23:59;;;;;;;5.68;1.13;;;;;;;18.15;86.43;100537.47;5094550;28;20052;-66
2021/05/16 09:26:29;;;;;;;2.70;1.30;;;;;;;18.19;86.55;100535.66;5101482;28;20089;-65
2021/05/16 09:29:44;;;;;;;2.33;1.05;;;;;;;18.25;86.51;100541.94;5100342;28;20046;-66
2021/05/16 09:32:10;;;;;;;5.38;1.08;;;;;;;18.14;86.17;100552.75;5095959;28;20456;-67
2021/05/16 09:34:40;;;;;;;8.68;2.03;;;;;;;18.07;86.29;100548.78;5095008;28;20044;-66
2021/05/16 09:37:08;;;;;;;3.65;1.40;;;;;;;18.12;86.10;100554.25;5094450;28;20044;-66
2021/05/16 09:39:36;;;;;;;3.33;1.30;;;;;;;18.07;85.92;100543.13;5094692;28;20051;-65
2021/05/16 09:42:13;;;;;;;7.28;1.80;;;;;;;18.08;86.04;100547.59;5094062;28;20062;-66
2021/05/16 09:44:49;;;;;;;4.55;1.33;;;;;;;18.14;86.02;100547.09;5102727;28;20051;-65
2021/05/16 09:47:19;;;;;;;3.10;1.50;;;;;;;18.24;85.91;100569.38;5092973;28;20063;-66
2021/05/16 09:49:52;;;;;;;4.50;1.60;;;;;;;18.37;85.90;100555.44;5093391;28;20367;-66
2021/05/16 09:52:25;;;;;;;6.05;2.10;;;;;;;18.52;85.89;100565.41;5093897;28;20113;-65
2021/05/16 09:55:02;;;;;;;3.40;1.73;;;;;;;18.53;86.15;100567.03;5096811;28;20468;-64
2021/05/16 09:57:31;;;;;;;7.18;1.10;;;;;;;18.51;86.22;100573.06;5093364;28;20127;-65
2021/05/16 09:59:59;;;;;;;5.53;1.35;;;;;;;18.37;85.84;100578.06;5096525;28;20040;-66
2021/05/16 10:02:28;;;;;;;9.05;1.33;;;;;;;18.40;85.42;100592.34;5093828;28;20048;-65
2021/05/16 10:05:01;;;;;;;3.97;1.23;;;;;;;18.30;85.88;100589.03;5093989;28;20052;-66
2021/05/16 10:07:29;;;;;;;3.55;1.77;;;;;;;17.71;85.78;100516.78;5094693;28;20505;-68
2021/05/16 10:09:57;;;;;;;3.80;1.38;;;;;;;18.19;85.71;100597.00;5105477;27;20040;-68
2021/05/16 10:12:24;;;;;;;0.70;0.60;;;;;;;18.22;85.40;100599.13;5094534;28;20493;-68
2021/05/16 10:15:11;;;;;;;1.90;1.15;;;;;;;18.32;85.75;100600.81;5093536;28;20436;-69
2021/05/16 10:17:41;;;;;;;4.65;1.77;;;;;;;18.45;85.93;100608.31;5099950;28;20043;-68
2021/05/16 10:20:13;;;;;;;1.80;1.00;;;;;;;18.57;85.81;100616.97;5092924;28;20492;-68
2021/05/16 10:22:51;;;;;;;2.88;1.20;;;;;;;18.80;86.17;100611.16;5093122;28;20047;-68
2021/05/16 10:25:37;;;;;;;3.42;1.50;;;;;;;19.02;85.96;100627.13;5093660;28;20040;-68
2021/05/16 10:28:04;;;;;;;0.85;0.75;;;;;;;19.07;85.51;100624.91;5099393;28;20532;-68
2021/05/16 10:30:31;;;;;;;5.38;1.10;;;;;;;19.13;85.37;100626.41;5093718;28;20101;-67
2021/05/16 10:32:58;;;;;;;1.88;1.10;;;;;;;19.15;85.15;100631.75;5093133;28;20039;-67
2021/05/16 10:35:27;;;;;;;2.58;1.40;;;;;;;19.14;85.19;100632.91;5097413;28;20044;-67
2021/05/16 10:37:54;;;;;;;4.40;1.70;;;;;;;19.40;85.10;100630.00;5093524;28;20075;-68
2021/05/16 10:40:26;;;;;;;2.50;1.17;;;;;;;19.62;85.00;100643.94;5092363;28;20044;-68
2021/05/16 10:42:56;;;;;;;9.27;1.75;;;;;;;19.55;85.07;100656.94;5092623;28;20048;-67
2021/05/16 10:45:28;;;;;;;2.20;1.40;;;;;;;19.64;85.11;100644.44;5092335;28;20052;-66
2021/05/16 10:48:03;;;;;;;2.78;1.35;;;;;;;19.85;84.84;100649.34;5092041;28;20055;-69
2021/05/16 10:50:39;;;;;;;1.83;1.25;;;;;;;20.04;84.23;100646.91;5092890;28;20051;-67
2021/05/16 10:53:11;;;;;;;1.25;0.98;;;;;;;20.33;83.89;100645.22;5099174;28;20043;-66
2021/05/16 10:55:43;;;;;;;1.27;0.82;;;;;;;20.83;83.18;100641.53;5099856;27;20378;-69
2021/05/16 10:58:32;;;;;;;1.67;0.90;;;;;;;21.18;83.08;100641.19;5100796;28;20058;-69
2021/05/16 11:01:04;;;;;;;0.73;0.60;;;;;;;21.47;82.06;100640.19;5098958;28;20469;-67
2021/05/16 11:03:47;;;;;;;0.40;0.40;;;;;;;21.49;82.28;100644.34;5097089;28;20134;-67
2021/05/16 11:06:17;;;;;;;1.60;0.70;;;;;;;21.60;81.32;100641.06;5099692;28;20061;-68
2021/05/16 11:08:43;;;;;;;2.95;0.80;;;;;;;21.61;81.49;100646.41;5093009;28;20036;-68
2021/05/16 11:11:48;;;;;;;2.72;1.60;;;;;;;21.77;81.33;100649.38;5091747;28;20050;-68
2021/05/16 11:14:23;;;;;;;1.55;0.60;;;;;;;21.76;80.99;100653.41;5026765;28;20042;-67
2021/05/16 11:16:56;;;;;;;2.20;0.63;;;;;;;21.57;81.81;100655.97;5019154;28;20065;-67
2021/05/16 11:19:26;;;;;;;3.17;0.95;;;;;;;21.24;82.27;100636.94;5067910;28;20040;-68
2021/05/16 11:21:54;;;;;;;1.50;0.85;;;;;;;21.22;82.16;100651.47;5097437;27;20071;-68
2021/05/16 11:24:41;;;;;;;1.25;1.10;;;;;;;21.33;81.92;100651.03;5100295;28;20039;-67
2021/05/16 11:27:18;;;;;;;2.22;1.08;;;;;;;21.37;81.80;100657.69;5096168;28;20048;-68
2021/05/16 11:29:53;;;;;;;1.88;1.10;;;;;;;21.25;81.93;100669.84;5099516;28;20550;-69